createdAt,value
2023-01-08T00:00:52.056Z,76.72
2023-01-08T00:03:18.718Z,75.95
2023-01-08T00:05:45.242Z,77.24
2023-01-08T00:08:12.113Z,76.45
2023-01-08T00:10:39.300Z,75.89
2023-01-08T00:13:06.407Z,75.98
2023-01-08T00:15:33.727Z,75.67
2023-01-08T00:18:00.857Z,75.11
2023-01-08T00:20:29.560Z,75.61
2023-01-08T00:22:56.280Z,76.00
2023-01-08T00:25:22.874Z,75.84
2023-01-08T00:27:49.781Z,75.70
2023-01-08T00:30:16.324Z,75.07
2023-01-08T00:32:43.182Z,75.80
2023-01-08T00:35:10.019Z,75.15
2023-01-08T00:37:36.432Z,75.67
2023-01-08T00:40:03.163Z,75.56
2023-01-08T00:42:29.568Z,75.67
2023-01-08T00:44:56.461Z,75.71
2023-01-08T00:47:22.965Z,75.15
2023-01-08T00:49:49.421Z,75.83
2023-01-08T00:52:16.163Z,74.83
2023-01-08T00:54:44.384Z,74.79
2023-01-08T00:57:11.394Z,74.84
2023-01-08T00:59:38.075Z,75.41
2023-01-08T01:02:05.278Z,75.86
2023-01-08T01:04:32.071Z,75.02
2023-01-08T01:06:58.544Z,75.66
2023-01-08T01:09:25.057Z,75.83
2023-01-08T01:11:51.483Z,75.13
2023-01-08T01:14:17.965Z,75.97
2023-01-08T01:16:44.548Z,76.13
2023-01-08T01:19:11.038Z,75.71
2023-01-08T01:21:37.541Z,75.53
2023-01-08T01:24:05.679Z,75.86
2023-01-08T01:26:33.431Z,74.59
2023-01-08T01:29:00.678Z,74.74
2023-01-08T01:31:29.753Z,74.73
2023-01-08T01:33:56.806Z,73.76
2023-01-08T01:36:24.751Z,74.40
2023-01-08T01:38:53.119Z,73.93
2023-01-08T01:41:37.767Z,73.11
2023-01-08T01:44:41.497Z,73.08
2023-01-08T01:47:17.011Z,73.16
2023-01-08T01:50:00.607Z,73.20
2023-01-08T01:52:30.259Z,73.83
2023-01-08T01:54:57.644Z,73.14
2023-01-08T01:57:24.962Z,73.55
2023-01-08T01:59:51.661Z,73.32
2023-01-08T02:02:19.237Z,74.26
2023-01-08T02:04:46.631Z,73.22
2023-01-08T02:07:19.615Z,73.31
2023-01-08T02:09:51.285Z,73.15
2023-01-08T02:12:26.735Z,72.85
2023-01-08T02:15:19.729Z,73.30
2023-01-08T02:18:02.791Z,73.59
2023-01-08T02:20:37.723Z,73.84
2023-01-08T02:23:38.837Z,73.24
2023-01-08T02:26:20.764Z,73.34
2023-01-08T02:29:07.548Z,73.26
2023-01-08T02:31:35.827Z,72.93
2023-01-08T02:34:02.562Z,72.86
2023-01-08T02:36:38.703Z,72.52
2023-01-08T02:39:20.415Z,72.47
2023-01-08T02:42:05.044Z,72.33
2023-01-08T02:44:39.464Z,72.66
2023-01-08T02:47:09.134Z,73.45
2023-01-08T02:49:38.927Z,73.06
2023-01-08T02:52:06.749Z,72.75
2023-01-08T02:54:35.305Z,73.08
2023-01-08T02:57:11.293Z,73.54
2023-01-08T02:59:38.625Z,72.95
2023-01-08T03:02:05.997Z,73.32
2023-01-08T03:04:42.679Z,73.52
2023-01-08T03:07:09.641Z,73.33
2023-01-08T03:09:36.394Z,73.31
2023-01-08T03:12:11.156Z,73.86
2023-01-08T03:14:43.494Z,73.73
2023-01-08T03:17:24.347Z,73.48
2023-01-08T03:19:57.429Z,73.32
2023-01-08T03:22:24.329Z,73.09
2023-01-08T03:24:53.350Z,73.72
2023-01-08T03:27:28.324Z,73.49
2023-01-08T03:29:56.489Z,74.18
2023-01-08T03:32:24.459Z,73.53
2023-01-08T03:34:53.167Z,73.54
2023-01-08T03:37:24.830Z,74.10
2023-01-08T03:39:56.423Z,73.60
2023-01-08T03:42:23.326Z,73.67
2023-01-08T03:44:49.758Z,74.52
2023-01-08T03:47:16.522Z,73.88
2023-01-08T03:49:43.829Z,74.32
2023-01-08T03:52:30.576Z,74.44
2023-01-08T03:54:57.030Z,75.19
2023-01-08T03:57:23.883Z,74.75
2023-01-08T03:59:50.387Z,74.50
2023-01-08T04:02:17.130Z,74.50
2023-01-08T04:04:43.957Z,73.83
2023-01-08T04:07:11.514Z,74.27
2023-01-08T04:09:37.955Z,74.03
2023-01-08T04:12:04.810Z,74.29
2023-01-08T04:14:31.345Z,74.28
2023-01-08T04:16:57.772Z,73.35
2023-01-08T04:19:24.191Z,73.52
2023-01-08T04:21:53.730Z,73.41
2023-01-08T04:24:20.347Z,72.90
2023-01-08T04:26:46.854Z,72.82
2023-01-08T04:29:14.311Z,73.14
2023-01-08T04:31:41.103Z,72.69
2023-01-08T04:34:07.621Z,73.59
2023-01-08T04:36:34.093Z,72.24
2023-01-08T04:39:00.467Z,73.45
2023-01-08T04:41:26.875Z,73.27
2023-01-08T04:43:53.635Z,73.55
2023-01-08T04:46:20.097Z,72.98
2023-01-08T04:48:46.560Z,72.79
2023-01-08T04:51:13.030Z,73.22
2023-01-08T04:53:41.241Z,73.39
2023-01-08T04:56:09.711Z,73.68
2023-01-08T04:58:37.366Z,73.98
2023-01-08T05:01:17.699Z,73.96
2023-01-08T05:03:44.196Z,73.72
2023-01-08T05:06:10.620Z,73.26
2023-01-08T05:08:37.078Z,73.00
2023-01-08T05:11:03.587Z,74.07
2023-01-08T05:13:30.299Z,74.09
2023-01-08T05:16:00.881Z,74.21
2023-01-08T05:18:28.779Z,74.56
2023-01-08T05:20:55.457Z,74.56
2023-01-08T05:23:21.983Z,74.25
2023-01-08T05:25:48.465Z,75.04
2023-01-08T05:28:14.877Z,75.27
2023-01-08T05:30:41.413Z,74.60
2023-01-08T05:33:07.944Z,74.34
2023-01-08T05:35:34.339Z,74.13
2023-01-08T05:38:00.757Z,73.98
2023-01-08T05:40:27.244Z,74.60
2023-01-08T05:42:53.670Z,75.07
2023-01-08T05:45:20.298Z,74.75
2023-01-08T05:47:46.998Z,74.54
2023-01-08T05:50:13.516Z,74.38
2023-01-08T05:52:39.961Z,75.32
2023-01-08T05:55:06.626Z,75.76
2023-01-08T05:57:33.040Z,75.22
2023-01-08T05:59:59.535Z,75.72
2023-01-08T06:02:25.955Z,75.52
2023-01-08T06:04:52.473Z,75.69
2023-01-08T06:07:19.068Z,74.84
2023-01-08T06:09:45.553Z,75.99
2023-01-08T06:12:11.978Z,74.88
2023-01-08T06:14:38.394Z,75.02
2023-01-08T06:17:04.871Z,75.35
2023-01-08T06:19:31.256Z,75.64
2023-01-08T06:21:57.689Z,75.59
2023-01-08T06:24:24.148Z,75.21
2023-01-08T06:26:50.618Z,75.13
2023-01-08T06:29:17.056Z,74.88
2023-01-08T06:31:43.523Z,75.83
2023-01-08T06:34:11.003Z,74.72
2023-01-08T06:36:37.422Z,75.85
2023-01-08T06:39:06.449Z,75.62
2023-01-08T06:41:32.854Z,75.56
2023-01-08T06:43:59.390Z,75.23
2023-01-08T06:46:26.005Z,75.59
2023-01-08T06:48:52.528Z,75.74
2023-01-08T06:51:19.097Z,75.48
2023-01-08T06:53:48.284Z,74.80
2023-01-08T06:56:14.924Z,75.76
2023-01-08T06:58:41.374Z,75.97
2023-01-08T07:01:13.463Z,75.46
2023-01-08T07:03:39.997Z,75.21
2023-01-08T07:06:06.843Z,74.79
2023-01-08T07:08:33.391Z,74.80
2023-01-08T07:11:06.076Z,74.63
2023-01-08T07:13:32.558Z,74.69
2023-01-08T07:15:58.957Z,74.51
2023-01-08T07:18:25.374Z,75.39
2023-01-08T07:20:51.910Z,74.51
2023-01-08T07:23:18.349Z,75.02
2023-01-08T07:25:44.801Z,74.14
2023-01-08T07:28:12.662Z,74.43
2023-01-08T07:30:39.136Z,73.95
2023-01-08T07:33:05.578Z,74.59
2023-01-08T07:35:31.999Z,74.72
2023-01-08T07:37:58.451Z,74.75
2023-01-08T07:40:24.948Z,74.61
2023-01-08T07:43:02.520Z,74.14
2023-01-08T07:45:29.402Z,74.74
2023-01-08T07:47:59.876Z,74.39
2023-01-08T07:50:26.840Z,74.17
2023-01-08T07:52:53.408Z,74.48
2023-01-08T07:55:19.769Z,74.70
2023-01-08T07:57:46.168Z,74.18
2023-01-08T08:00:14.696Z,74.42
2023-01-08T08:02:41.317Z,74.83
2023-01-08T08:05:08.220Z,74.27
2023-01-08T08:07:36.017Z,74.28
2023-01-08T08:10:03.881Z,74.25
2023-01-08T08:12:30.499Z,74.23
2023-01-08T08:14:56.940Z,73.30
2023-01-08T08:17:23.649Z,74.17
2023-01-08T08:19:50.031Z,74.01
2023-01-08T08:22:16.487Z,73.78
2023-01-08T08:24:42.891Z,74.02
2023-01-08T08:27:09.350Z,73.45
2023-01-08T08:29:35.764Z,73.27
2023-01-08T08:32:02.221Z,72.38
2023-01-08T08:34:28.696Z,73.03
2023-01-08T08:36:55.079Z,72.42
2023-01-08T08:39:21.559Z,71.39
2023-01-08T08:41:47.988Z,69.92
2023-01-08T08:44:14.439Z,67.79
2023-01-08T08:46:40.874Z,67.58
2023-01-08T08:49:07.582Z,68.00
2023-01-08T08:51:33.981Z,68.50
2023-01-08T08:54:00.400Z,67.97
2023-01-08T08:56:29.802Z,67.96
2023-01-08T08:58:58.024Z,67.05
2023-01-08T09:01:24.752Z,68.35
2023-01-08T09:03:51.248Z,68.86
2023-01-08T09:06:17.695Z,69.59
2023-01-08T09:08:44.217Z,69.85
2023-01-08T09:11:12.118Z,69.51
2023-01-08T09:13:39.920Z,68.63
2023-01-08T09:16:06.665Z,69.47
2023-01-08T09:18:33.285Z,69.52
2023-01-08T09:21:04.567Z,69.07
2023-01-08T09:23:31.100Z,69.02
2023-01-08T09:26:02.164Z,69.61
2023-01-08T09:28:30.740Z,69.18
2023-01-08T09:31:12.348Z,69.46
2023-01-08T09:33:40.518Z,68.98
2023-01-08T09:36:11.471Z,69.43
2023-01-08T09:38:38.040Z,70.11
2023-01-08T09:41:08.667Z,69.82
2023-01-08T09:43:36.732Z,69.65
2023-01-08T09:46:06.152Z,69.73
2023-01-08T09:48:35.883Z,69.92
2023-01-08T09:51:02.799Z,69.95
2023-01-08T09:53:29.428Z,69.71
2023-01-08T09:56:10.035Z,69.73
2023-01-08T09:58:40.382Z,69.42
2023-01-08T10:01:09.718Z,70.03
2023-01-08T10:03:45.502Z,69.93
2023-01-08T10:06:14.565Z,69.98
2023-01-08T10:08:41.444Z,69.47
2023-01-08T10:11:09.371Z,69.29
2023-01-08T10:13:38.387Z,69.81
2023-01-08T10:16:10.417Z,70.17
2023-01-08T10:18:37.662Z,69.51
2023-01-08T10:21:04.439Z,69.84
2023-01-08T10:23:30.946Z,69.42
2023-01-08T10:26:00.307Z,69.48
2023-01-08T10:28:31.705Z,70.00
2023-01-08T10:31:16.184Z,69.35
2023-01-08T10:33:45.604Z,68.82
2023-01-08T10:36:15.314Z,68.87
2023-01-08T10:38:48.292Z,69.20
2023-01-08T10:41:15.250Z,69.02
2023-01-08T10:43:58.321Z,69.75
2023-01-08T10:46:27.411Z,69.66
2023-01-08T10:48:59.049Z,69.15
2023-01-08T10:51:27.723Z,69.38
2023-01-08T10:53:56.061Z,69.35
2023-01-08T10:56:28.223Z,68.95
2023-01-08T10:58:55.633Z,68.75
2023-01-08T11:01:30.160Z,68.31
2023-01-08T11:04:02.114Z,68.75
2023-01-08T11:06:34.103Z,68.72
2023-01-08T11:09:02.475Z,67.94
2023-01-08T11:11:36.286Z,67.97
2023-01-08T11:14:15.646Z,67.19
2023-01-08T11:16:42.985Z,66.79
2023-01-08T11:19:39.981Z,66.92
2023-01-08T11:22:25.362Z,66.68
2023-01-08T11:24:53.569Z,66.45
2023-01-08T11:27:41.928Z,67.38
2023-01-08T11:30:12.577Z,67.16
2023-01-08T11:32:51.235Z,67.28
2023-01-08T11:35:30.016Z,67.08
2023-01-08T11:38:01.839Z,66.78
2023-01-08T11:40:31.641Z,66.22
2023-01-08T11:43:10.345Z,66.60
2023-01-08T11:45:57.800Z,67.32
2023-01-08T11:48:31.348Z,67.19
2023-01-08T11:51:24.260Z,67.79
2023-01-08T11:54:15.700Z,67.04
2023-01-08T11:56:57.385Z,66.51
2023-01-08T11:59:33.983Z,66.88
2023-01-08T12:02:36.929Z,67.02
2023-01-08T12:05:26.248Z,66.79
2023-01-08T12:08:28.055Z,67.17
2023-01-08T12:11:16.202Z,66.58
2023-01-08T12:14:06.958Z,66.25
2023-01-08T12:16:47.569Z,66.29
2023-01-08T12:19:27.735Z,65.64
2023-01-08T12:22:25.385Z,65.69
2023-01-08T12:25:02.441Z,65.74
2023-01-08T12:27:55.870Z,65.83
2023-01-08T12:30:48.669Z,66.43
2023-01-08T12:33:33.859Z,66.18
2023-01-08T12:36:04.693Z,66.04
2023-01-08T12:38:42.493Z,66.58
2023-01-08T12:41:14.515Z,66.63
2023-01-08T12:43:55.158Z,66.40
2023-01-08T12:46:23.109Z,66.87
2023-01-08T12:48:53.265Z,66.59
2023-01-08T12:51:27.053Z,67.11
2023-01-08T12:53:59.916Z,67.29
2023-01-08T12:57:07.773Z,67.30
2023-01-08T12:59:53.996Z,67.66
2023-01-08T13:02:58.001Z,67.39
2023-01-08T13:05:24.442Z,67.89
2023-01-08T13:07:56.885Z,66.96
2023-01-08T13:10:32.416Z,67.75
2023-01-08T13:13:01.819Z,67.38
2023-01-08T13:15:30.482Z,66.96
2023-01-08T13:18:03.132Z,67.64
2023-01-08T13:20:31.322Z,68.03
2023-01-08T13:23:05.616Z,68.38
2023-01-08T13:25:37.121Z,68.59
2023-01-08T13:28:45.178Z,68.48
2023-01-08T13:31:20.705Z,68.27
2023-01-08T13:33:52.746Z,68.13
2023-01-08T13:36:21.131Z,68.11
2023-01-08T13:39:11.970Z,67.86
2023-01-08T13:41:42.856Z,68.20
2023-01-08T13:44:22.491Z,68.16
2023-01-08T13:46:58.101Z,68.11
2023-01-08T13:49:44.923Z,68.41
2023-01-08T13:52:31.994Z,68.32
2023-01-08T13:54:59.745Z,68.26
2023-01-08T13:57:27.742Z,68.63
2023-01-08T13:59:55.823Z,68.57
2023-01-08T14:02:27.599Z,68.86
2023-01-08T14:04:54.633Z,70.77
2023-01-08T14:07:23.747Z,71.32
2023-01-08T14:09:50.884Z,72.72
2023-01-08T14:12:20.518Z,73.27
2023-01-08T14:14:57.776Z,73.76
2023-01-08T14:17:32.132Z,74.60
2023-01-08T14:19:59.059Z,76.22
2023-01-08T14:22:33.451Z,75.69
2023-01-08T14:25:15.753Z,77.03
2023-01-08T14:27:42.486Z,77.00
2023-01-08T14:30:16.747Z,77.95
2023-01-08T14:32:43.487Z,77.40
2023-01-08T14:35:18.380Z,78.65
2023-01-08T14:37:45.085Z,78.04
2023-01-08T14:40:16.465Z,78.13
2023-01-08T14:43:03.978Z,79.10
2023-01-08T14:45:35.285Z,79.25
2023-01-08T14:48:09.934Z,78.13
2023-01-08T14:50:40.016Z,79.04
2023-01-08T14:53:28.671Z,79.26
2023-01-08T14:55:59.920Z,79.74
2023-01-08T14:58:28.859Z,80.30
2023-01-08T15:01:03.767Z,80.71
2023-01-08T15:03:49.608Z,80.30
2023-01-08T15:06:27.408Z,80.20
2023-01-08T15:08:59.643Z,79.92
2023-01-08T15:11:51.203Z,79.80
2023-01-08T15:14:28.858Z,81.08
2023-01-08T15:17:02.205Z,80.91
2023-01-08T15:19:42.593Z,80.43
2023-01-08T15:22:17.002Z,80.58
2023-01-08T15:25:01.942Z,79.49
2023-01-08T15:27:31.560Z,80.19
2023-01-08T15:30:02.811Z,78.94
2023-01-08T15:32:37.258Z,78.72
2023-01-08T15:35:21.502Z,79.04
2023-01-08T15:37:52.813Z,78.24
2023-01-08T15:44:13.084Z,78.05
2023-01-08T15:46:39.826Z,78.68
2023-01-08T15:49:06.862Z,78.47
2023-01-08T15:51:34.601Z,78.26
2023-01-08T15:54:04.151Z,78.14
2023-01-08T15:56:30.787Z,77.64
2023-01-08T15:58:57.257Z,77.73
2023-01-08T16:01:24.425Z,77.51
2023-01-08T16:03:51.172Z,78.24
2023-01-08T16:06:17.745Z,77.07
2023-01-08T16:08:46.143Z,77.25
2023-01-08T16:11:13.617Z,76.88
2023-01-08T16:13:40.298Z,77.00
2023-01-08T16:16:11.273Z,76.94
2023-01-08T16:18:38.324Z,76.73
2023-01-08T16:21:06.065Z,76.29
2023-01-08T16:23:38.046Z,76.51
2023-01-08T16:26:12.551Z,75.50
2023-01-08T16:28:39.793Z,75.59
2023-01-08T16:31:06.941Z,75.72
2023-01-08T16:33:33.431Z,75.88
2023-01-08T16:36:04.507Z,75.57
2023-01-08T16:38:33.393Z,75.49
2023-01-08T16:41:00.320Z,76.21
2023-01-08T16:43:28.948Z,75.98
2023-01-08T16:45:56.229Z,76.23
2023-01-08T16:48:23.656Z,75.51
2023-01-08T16:50:50.208Z,76.01
2023-01-08T16:53:21.600Z,75.85
2023-01-08T16:55:48.192Z,75.90
2023-01-08T16:58:14.968Z,76.25
2023-01-08T17:00:41.673Z,75.51
2023-01-08T17:03:08.256Z,75.52
2023-01-08T17:05:36.208Z,75.84
2023-01-08T17:08:02.885Z,75.05
2023-01-08T17:10:29.432Z,75.02
2023-01-08T17:12:56.010Z,75.39
2023-01-08T17:15:22.500Z,75.29
2023-01-08T17:17:49.030Z,75.25
2023-01-08T17:20:15.784Z,74.93
2023-01-08T17:22:46.450Z,74.48
2023-01-08T17:25:14.524Z,74.15
2023-01-08T17:27:42.121Z,74.54
2023-01-08T17:30:10.803Z,74.57
2023-01-08T17:32:37.995Z,74.59
2023-01-08T17:35:05.940Z,74.72
2023-01-08T17:37:33.581Z,74.35
2023-01-08T17:40:01.382Z,75.08
2023-01-08T17:42:31.862Z,75.01
2023-01-08T17:45:03.402Z,74.46
2023-01-08T17:47:30.841Z,75.26
2023-01-08T17:49:57.777Z,74.48
2023-01-08T17:52:28.710Z,75.00
2023-01-08T17:54:55.392Z,74.56
2023-01-08T17:57:29.581Z,74.31
2023-01-08T17:59:57.386Z,73.96
2023-01-08T18:02:24.748Z,74.61
2023-01-08T18:04:51.474Z,74.51
2023-01-08T18:07:20.653Z,75.03
2023-01-08T18:09:49.301Z,75.02
2023-01-08T18:12:15.976Z,75.75
2023-01-08T18:14:44.134Z,75.47
2023-01-08T18:17:10.952Z,75.39
2023-01-08T18:19:37.448Z,76.14
2023-01-08T18:22:04.000Z,76.27
2023-01-08T18:24:30.789Z,76.45
2023-01-08T18:26:58.589Z,76.22
2023-01-08T18:29:26.855Z,76.27
2023-01-08T18:31:56.031Z,76.35
2023-01-08T18:34:22.688Z,76.85
2023-01-08T18:36:49.224Z,76.48
2023-01-08T18:39:15.966Z,76.96
2023-01-08T18:42:01.257Z,76.76
2023-01-08T18:44:28.028Z,76.39
2023-01-08T18:46:57.678Z,76.99
2023-01-08T18:49:24.598Z,76.95
2023-01-08T18:51:51.111Z,76.85
2023-01-08T18:54:17.691Z,77.66
2023-01-08T18:56:46.551Z,77.36
2023-01-08T18:59:13.298Z,77.37
2023-01-08T19:01:40.124Z,76.82
2023-01-08T19:04:07.731Z,76.74
2023-01-08T19:06:35.029Z,77.47
2023-01-08T19:09:04.115Z,77.20
2023-01-08T19:11:30.983Z,77.64
2023-01-08T19:13:58.270Z,77.88
2023-01-08T19:16:25.579Z,78.10
2023-01-08T19:18:52.655Z,77.85
2023-01-08T19:21:19.659Z,77.28
2023-01-08T19:23:47.693Z,77.08
2023-01-08T19:26:15.683Z,77.48
2023-01-08T19:28:43.443Z,77.28
2023-01-08T19:31:20.435Z,77.38
2023-01-08T19:33:47.235Z,77.75
2023-01-08T19:36:17.785Z,77.13
2023-01-08T19:38:44.703Z,77.15
2023-01-08T19:41:34.380Z,76.99
2023-01-08T19:44:01.251Z,77.25
2023-01-08T19:46:40.407Z,77.55
2023-01-08T19:49:18.121Z,77.23
2023-01-08T19:51:53.246Z,76.88
2023-01-08T19:54:24.713Z,76.68
2023-01-08T19:56:56.689Z,77.10
2023-01-08T19:59:37.136Z,76.43
2023-01-08T20:02:04.125Z,77.33
2023-01-08T20:04:41.805Z,76.71
2023-01-08T20:07:41.641Z,77.63
2023-01-08T20:10:11.128Z,77.49
2023-01-08T20:12:38.667Z,77.32
2023-01-08T20:15:06.174Z,76.43
2023-01-08T20:17:33.059Z,76.78
2023-01-08T20:20:00.076Z,76.96
2023-01-08T20:22:28.408Z,76.15
2023-01-08T20:24:58.541Z,76.98
2023-01-08T20:27:25.533Z,75.85
2023-01-08T20:30:00.901Z,76.29
2023-01-08T20:32:31.371Z,76.74
2023-01-08T20:34:58.004Z,76.31
2023-01-08T20:37:24.804Z,76.41
2023-01-08T20:39:53.806Z,76.08
2023-01-08T20:42:34.105Z,76.18
2023-01-08T20:45:01.510Z,76.49
2023-01-08T20:47:29.384Z,75.85
2023-01-08T20:49:56.483Z,77.25
2023-01-08T20:52:23.450Z,76.84
2023-01-08T20:54:59.995Z,76.38
2023-01-08T20:57:28.283Z,76.82
2023-01-08T20:59:55.348Z,76.41
2023-01-08T21:02:22.003Z,76.51
2023-01-08T21:04:51.357Z,76.63
2023-01-08T21:07:22.749Z,76.93
2023-01-08T21:09:49.489Z,76.34
2023-01-08T21:12:16.208Z,76.31
2023-01-08T21:14:42.856Z,76.61
2023-01-08T21:17:09.472Z,76.70
2023-01-08T21:19:36.044Z,76.07
2023-01-08T21:22:02.789Z,76.34
2023-01-08T21:24:29.356Z,76.21
2023-01-08T21:26:55.971Z,76.22
2023-01-08T21:29:23.561Z,75.94
2023-01-08T21:31:50.299Z,76.36
2023-01-08T21:34:16.868Z,76.44
2023-01-08T21:36:44.879Z,76.40
2023-01-08T21:39:15.292Z,76.38
2023-01-08T21:42:00.692Z,77.02
2023-01-08T21:44:45.998Z,76.37
2023-01-08T21:47:16.620Z,76.53
2023-01-08T21:49:44.364Z,76.78
2023-01-08T21:52:31.074Z,76.20
2023-01-08T21:55:03.153Z,76.27
2023-01-08T21:57:30.352Z,76.06
2023-01-08T22:00:13.472Z,76.92
2023-01-08T22:02:42.879Z,76.66
2023-01-08T22:05:11.187Z,76.73
2023-01-08T22:07:39.783Z,76.32
2023-01-08T22:10:08.358Z,76.63
2023-01-08T22:12:36.126Z,76.37
2023-01-08T22:15:04.738Z,76.00
2023-01-08T22:17:33.839Z,76.47
2023-01-08T22:20:01.981Z,76.37
2023-01-08T22:22:31.966Z,76.45
2023-01-08T22:24:58.527Z,76.01
2023-01-08T22:27:25.267Z,76.29
2023-01-08T22:29:51.831Z,76.22
2023-01-08T22:32:18.456Z,76.38
2023-01-08T22:34:47.357Z,76.33
2023-01-08T22:37:18.955Z,76.25
2023-01-08T22:39:46.041Z,76.20
2023-01-08T22:42:12.643Z,76.12
2023-01-08T22:44:39.443Z,76.04
2023-01-08T22:47:08.504Z,76.68
2023-01-08T22:49:35.052Z,76.11
2023-01-08T22:52:01.921Z,75.88
2023-01-08T22:54:28.568Z,75.54
2023-01-08T22:56:55.093Z,75.16
2023-01-08T22:59:22.114Z,75.87
2023-01-08T23:01:49.126Z,76.20
2023-01-08T23:04:18.259Z,75.09
2023-01-08T23:06:47.158Z,75.24
2023-01-08T23:09:14.000Z,75.40
2023-01-08T23:11:40.964Z,74.64
2023-01-08T23:14:07.666Z,75.17
2023-01-08T23:16:34.341Z,75.69
2023-01-08T23:19:01.537Z,75.80
2023-01-08T23:21:28.634Z,75.53
2023-01-08T23:23:57.736Z,74.77
2023-01-08T23:26:29.411Z,75.15
2023-01-08T23:28:57.443Z,75.61
2023-01-08T23:31:26.461Z,75.25
2023-01-08T23:33:53.254Z,75.25
2023-01-08T23:36:21.403Z,75.11
2023-01-08T23:38:50.478Z,74.92
2023-01-08T23:41:17.616Z,75.12
2023-01-08T23:43:45.875Z,74.55
2023-01-08T23:46:13.576Z,74.74
2023-01-08T23:48:40.189Z,74.74
2023-01-08T23:51:07.171Z,74.92
2023-01-08T23:53:33.856Z,74.22
2023-01-08T23:56:01.899Z,74.52
2023-01-08T23:58:29.950Z,74.14
